createdAt,value
2023-02-11T00:02:51.174Z,103222.41
2023-02-11T00:07:52.856Z,103223.28
2023-02-11T00:12:54.456Z,103212.72
2023-02-11T00:17:56.143Z,103209.88
2023-02-11T00:22:57.783Z,103212.91
2023-02-11T00:27:59.513Z,103212.25
2023-02-11T00:33:01.744Z,103230.50
2023-02-11T00:38:03.442Z,103234.13
2023-02-11T00:43:06.916Z,103230.50
2023-02-11T00:48:08.596Z,103225.41
2023-02-11T00:53:10.619Z,103199.91
2023-02-11T00:58:13.476Z,103190.91
2023-02-11T01:03:17.197Z,103198.56
2023-02-11T01:08:19.549Z,103195.03
2023-02-11T01:13:22.756Z,103195.44
2023-02-11T01:18:25.488Z,103203.72
2023-02-11T01:23:27.337Z,103205.75
2023-02-11T01:28:30.349Z,103206.72
2023-02-11T01:33:34.449Z,103190.69
2023-02-11T01:38:36.762Z,103190.31
2023-02-11T01:43:45.828Z,103193.16
2023-02-11T01:48:55.172Z,103188.56
2023-02-11T01:54:16.119Z,103181.22
2023-02-11T01:59:27.081Z,103183.09
2023-02-11T02:04:35.497Z,103180.44
2023-02-11T02:09:44.573Z,103193.84
2023-02-11T02:14:46.234Z,103198.34
2023-02-11T02:20:11.102Z,103205.75
2023-02-11T02:25:33.208Z,103185.66
2023-02-11T02:31:12.520Z,103185.91
2023-02-11T02:36:28.169Z,103186.13
2023-02-11T02:41:35.782Z,103183.66
2023-02-11T02:46:38.037Z,103191.97
2023-02-11T02:51:59.121Z,103190.13
2023-02-11T02:57:20.426Z,103169.72
2023-02-11T03:02:30.267Z,103165.19
2023-02-11T03:07:44.450Z,103174.97
2023-02-11T03:12:48.751Z,103171.34
2023-02-11T03:17:54.243Z,103168.72
2023-02-11T03:23:09.075Z,103165.09
2023-02-11T03:28:18.249Z,103164.03
2023-02-11T03:33:35.647Z,103167.53
2023-02-11T03:38:44.573Z,103160.59
2023-02-11T03:43:54.357Z,103162.38
2023-02-11T03:49:02.446Z,103162.16
2023-02-11T03:54:09.091Z,103158.25
2023-02-11T03:59:10.893Z,103147.31
2023-02-11T04:04:12.704Z,103149.00
2023-02-11T04:09:15.327Z,103147.72
2023-02-11T04:14:17.080Z,103149.28
2023-02-11T04:19:18.877Z,103147.63
2023-02-11T04:24:20.514Z,103130.34
2023-02-11T04:29:22.624Z,103140.03
2023-02-11T04:34:25.611Z,103135.25
2023-02-11T04:39:28.851Z,103133.28
2023-02-11T04:44:30.617Z,103136.97
2023-02-11T04:49:32.383Z,103144.22
2023-02-11T04:54:34.128Z,103147.06
2023-02-11T04:59:35.867Z,103152.13
2023-02-11T05:04:37.536Z,103160.91
2023-02-11T05:09:39.267Z,103174.50
2023-02-11T05:14:41.067Z,103176.28
2023-02-11T05:19:43.234Z,103183.31
2023-02-11T05:24:44.885Z,103185.06
2023-02-11T05:29:46.597Z,103193.16
2023-02-11T05:34:48.212Z,103168.72
2023-02-11T05:39:50.019Z,103175.09
2023-02-11T05:44:51.715Z,103178.31
2023-02-11T05:49:53.946Z,103181.84
2023-02-11T05:54:55.590Z,103179.97
2023-02-11T05:59:57.350Z,103185.25
2023-02-11T06:04:59.030Z,103193.25
2023-02-11T06:10:00.815Z,103193.16
2023-02-11T06:15:02.573Z,103192.38
2023-02-11T06:20:07.455Z,103185.63
2023-02-11T06:25:09.235Z,103176.66
2023-02-11T06:30:11.656Z,103179.38
2023-02-11T06:35:14.561Z,103179.16
2023-02-11T06:40:16.307Z,103173.13
2023-02-11T06:45:18.121Z,103176.81
2023-02-11T06:50:19.798Z,103179.56
2023-02-11T06:55:21.510Z,103178.59
2023-02-11T07:00:23.215Z,103186.44
2023-02-11T07:05:24.881Z,103205.38
2023-02-11T07:10:26.534Z,103195.72
2023-02-11T07:15:28.152Z,103196.00
2023-02-11T07:20:30.055Z,103214.75
2023-02-11T07:25:31.710Z,103212.00
2023-02-11T07:30:33.458Z,103213.19
2023-02-11T07:35:35.161Z,103208.72
2023-02-11T07:40:36.809Z,103224.53
2023-02-11T07:45:39.402Z,103209.88
2023-02-11T07:50:41.087Z,103216.94
2023-02-11T07:55:43.639Z,103217.00
2023-02-11T08:00:46.056Z,103214.28
2023-02-11T08:05:47.728Z,103225.44
2023-02-11T08:10:49.567Z,103237.25
2023-02-11T08:15:51.890Z,103245.06
2023-02-11T08:20:53.727Z,103251.50
2023-02-11T08:25:55.352Z,103266.69
2023-02-11T08:30:57.084Z,103255.63
2023-02-11T08:35:58.761Z,103264.81
2023-02-11T08:41:01.167Z,103262.97
2023-02-11T08:46:03.527Z,103269.81
2023-02-11T08:51:10.647Z,103262.38
2023-02-11T08:56:13.843Z,103274.50
2023-02-11T09:01:28.085Z,103277.13
2023-02-11T09:06:29.883Z,103262.47
2023-02-11T09:11:35.380Z,103276.56
2023-02-11T09:16:37.148Z,103284.38
2023-02-11T09:21:38.968Z,103293.94
2023-02-11T09:26:42.144Z,103297.56
2023-02-11T09:31:43.948Z,103299.41
2023-02-11T09:36:46.071Z,103306.84
2023-02-11T09:41:56.104Z,103311.56
2023-02-11T09:47:02.748Z,103322.19
2023-02-11T09:52:24.596Z,103326.00
2023-02-11T09:57:34.141Z,103335.59
2023-02-11T10:03:13.969Z,103338.28
2023-02-11T10:08:39.742Z,103354.75
2023-02-11T10:13:58.147Z,103364.91
2023-02-11T10:19:30.817Z,103358.16
2023-02-11T10:24:33.945Z,103358.19
2023-02-11T10:29:52.443Z,103363.19
2023-02-11T10:34:59.596Z,103361.97
2023-02-11T10:40:01.281Z,103373.16
2023-02-11T10:45:07.458Z,103385.91
2023-02-11T10:50:28.235Z,103396.34
2023-02-11T10:55:29.921Z,103398.31
2023-02-11T11:00:40.997Z,103393.56
2023-02-11T11:05:51.677Z,103399.91
2023-02-11T11:11:06.574Z,103390.75
2023-02-11T11:16:14.000Z,103397.88
2023-02-11T11:21:30.435Z,103405.25
2023-02-11T11:26:54.174Z,103419.38
2023-02-11T11:31:58.115Z,103408.84
2023-02-11T11:37:28.883Z,103422.78
2023-02-11T11:42:36.429Z,103416.09
2023-02-11T11:47:45.258Z,103401.94
2023-02-11T11:53:09.878Z,103415.44
2023-02-11T11:58:21.126Z,103419.41
2023-02-11T12:04:20.532Z,103419.66
2023-02-11T12:09:40.749Z,103412.44
2023-02-11T12:14:45.309Z,103416.81
2023-02-11T12:19:59.335Z,103418.28
2023-02-11T12:25:19.952Z,103399.28
2023-02-11T12:30:51.051Z,103414.88
2023-02-11T12:36:06.674Z,103416.22
2023-02-11T12:41:46.242Z,103419.97
2023-02-11T12:47:17.658Z,103415.56
2023-02-11T12:52:38.092Z,103412.69
2023-02-11T12:57:41.669Z,103420.19
2023-02-11T13:02:59.968Z,103425.56
2023-02-11T13:08:17.084Z,103427.88
2023-02-11T13:13:25.758Z,103425.34
2023-02-11T13:18:58.315Z,103416.25
2023-02-11T13:24:35.302Z,103421.59
2023-02-11T13:29:56.325Z,103407.44
2023-02-11T13:34:58.510Z,103412.16
2023-02-11T13:40:01.167Z,103409.06
2023-02-11T13:45:03.041Z,103412.81
2023-02-11T13:50:07.630Z,103410.53
2023-02-11T13:55:36.077Z,103406.31
2023-02-11T14:00:37.646Z,103408.78
2023-02-11T14:06:26.994Z,103417.00
2023-02-11T14:11:43.604Z,103412.50
2023-02-11T14:17:00.992Z,103407.22
2023-02-11T14:22:04.691Z,103414.13
2023-02-11T14:27:09.370Z,103404.16
2023-02-11T14:32:58.257Z,103405.91
2023-02-11T14:38:27.602Z,103406.91
2023-02-11T14:43:38.695Z,103408.75
2023-02-11T14:48:48.774Z,103419.28
2023-02-11T14:53:51.312Z,103422.03
2023-02-11T14:58:54.684Z,103425.66
2023-02-11T15:03:57.075Z,103430.63
2023-02-11T15:09:07.735Z,103441.88
2023-02-11T15:14:19.174Z,103452.00
2023-02-11T15:19:26.830Z,103445.66
2023-02-11T15:24:31.338Z,103448.81
2023-02-11T15:29:42.108Z,103438.28
2023-02-11T15:34:46.048Z,103440.25
2023-02-11T15:39:47.785Z,103445.31
2023-02-11T15:45:08.709Z,103447.72
2023-02-11T15:50:22.178Z,103436.50
2023-02-11T15:55:26.707Z,103451.00
2023-02-11T16:00:35.612Z,103450.66
2023-02-11T16:05:38.338Z,103455.28
2023-02-11T16:10:40.340Z,103455.50
2023-02-11T16:15:42.218Z,103462.69
2023-02-11T16:20:47.904Z,103469.94
2023-02-11T16:25:55.058Z,103462.69
2023-02-11T16:30:59.321Z,103471.91
2023-02-11T16:36:10.483Z,103473.47
2023-02-11T16:41:12.830Z,103463.75
2023-02-11T16:46:16.144Z,103480.38
2023-02-11T16:51:18.043Z,103496.66
2023-02-11T16:56:19.879Z,103503.44
2023-02-11T17:01:21.538Z,103503.94
2023-02-11T17:06:23.505Z,103505.56
2023-02-11T17:11:25.316Z,103504.03
2023-02-11T17:16:29.920Z,103498.63
2023-02-11T17:21:33.602Z,103498.63
2023-02-11T17:26:36.921Z,103510.59
2023-02-11T17:31:39.969Z,103505.00
2023-02-11T17:36:41.721Z,103519.50
2023-02-11T17:41:43.509Z,103526.06
2023-02-11T17:46:45.181Z,103537.88
2023-02-11T17:51:46.922Z,103531.88
2023-02-11T17:56:50.769Z,103529.53
2023-02-11T18:01:55.987Z,103535.91
2023-02-11T18:07:01.064Z,103544.72
2023-02-11T18:12:02.832Z,103551.66
2023-02-11T18:17:04.504Z,103549.53
2023-02-11T18:22:06.392Z,103554.09
2023-02-11T18:27:08.040Z,103570.00
2023-02-11T18:32:09.788Z,103569.69
2023-02-11T18:37:13.381Z,103570.78
2023-02-11T18:42:15.129Z,103563.34
2023-02-11T18:47:16.756Z,103575.41
2023-02-11T18:52:18.398Z,103574.72
2023-02-11T18:57:20.101Z,103574.31
2023-02-11T19:02:21.785Z,103573.53
2023-02-11T19:07:25.137Z,103582.38
2023-02-11T19:12:26.751Z,103583.72
2023-02-11T19:17:28.783Z,103583.16
2023-02-11T19:22:30.778Z,103582.25
2023-02-11T19:27:32.755Z,103586.69
2023-02-11T19:32:34.368Z,103585.00
2023-02-11T19:37:36.187Z,103590.38
2023-02-11T19:42:38.330Z,103585.59
2023-02-11T19:47:39.944Z,103597.25
2023-02-11T19:52:41.632Z,103590.06
2023-02-11T19:57:43.336Z,103601.84
2023-02-11T20:02:47.144Z,103605.38
2023-02-11T20:07:48.844Z,103595.38
2023-02-11T20:12:50.972Z,103607.63
2023-02-11T20:17:52.684Z,103625.75
2023-02-11T20:22:54.353Z,103615.69
2023-02-11T20:27:56.083Z,103621.34
2023-02-11T20:32:58.530Z,103629.59
2023-02-11T20:38:00.705Z,103632.72
2023-02-11T20:43:02.318Z,103636.06
2023-02-11T20:48:04.110Z,103649.03
2023-02-11T20:53:06.059Z,103648.09
2023-02-11T20:58:08.629Z,103649.03
2023-02-11T21:03:10.350Z,103651.16
2023-02-11T21:08:11.969Z,103657.72
2023-02-11T21:13:13.601Z,103656.66
2023-02-11T21:18:15.268Z,103663.09
2023-02-11T21:23:17.206Z,103664.56
2023-02-11T21:28:19.108Z,103667.31
2023-02-11T21:33:21.441Z,103671.75
2023-02-11T21:38:23.348Z,103678.31
2023-02-11T21:43:25.607Z,103687.63
2023-02-11T21:48:27.292Z,103687.63
2023-02-11T21:53:29.023Z,103699.28
2023-02-11T21:58:30.789Z,103700.09
2023-02-11T22:03:32.542Z,103713.09
2023-02-11T22:08:34.127Z,103706.66
2023-02-11T22:13:36.375Z,103704.47
2023-02-11T22:18:39.060Z,103707.13
2023-02-11T22:23:41.090Z,103702.13
2023-02-11T22:28:43.276Z,103694.97
2023-02-11T22:33:45.425Z,103701.13
2023-02-11T22:38:48.912Z,103695.06
2023-02-11T22:43:50.715Z,103702.03
2023-02-11T22:48:52.701Z,103704.16
2023-02-11T22:53:57.136Z,103708.47
2023-02-11T22:59:04.234Z,103697.41
2023-02-11T23:04:08.038Z,103702.03
2023-02-11T23:09:14.428Z,103711.03
2023-02-11T23:14:16.121Z,103717.31
2023-02-11T23:19:17.719Z,103730.25
2023-02-11T23:24:19.392Z,103724.94
2023-02-11T23:29:21.174Z,103735.63
2023-02-11T23:34:25.464Z,103720.31
2023-02-11T23:39:27.150Z,103735.72
2023-02-11T23:44:29.043Z,103722.41
2023-02-11T23:49:31.026Z,103722.91
2023-02-11T23:54:32.749Z,103724.34
2023-02-11T23:59:34.378Z,103717.19
